sensor_id;sensor_type;location;lat;lon;timestamp;temperature;humidity
23143;DHT22;11740;51.168;4.112;2023-04-25T00:00:51;9.30;99.90
23143;DHT22;11740;51.168;4.112;2023-04-25T00:03:19;9.30;99.90
23143;DHT22;11740;51.168;4.112;2023-04-25T00:05:47;9.20;99.90
23143;DHT22;11740;51.168;4.112;2023-04-25T00:08:15;9.20;99.90
23143;DHT22;11740;51.168;4.112;2023-04-25T00:10:42;9.20;99.90
23143;DHT22;11740;51.168;4.112;2023-04-25T00:13:09;9.20;99.90
23143;DHT22;11740;51.168;4.112;2023-04-25T00:15:37;9.20;99.90
23143;DHT22;11740;51.168;4.112;2023-04-25T00:18:05;9.20;99.90
23143;DHT22;11740;51.168;4.112;2023-04-25T00:20:32;9.20;99.90
23143;DHT22;11740;51.168;4.112;2023-04-25T00:22:59;9.20;99.90
23143;DHT22;11740;51.168;4.112;2023-04-25T00:25:26;9.20;99.90
23143;DHT22;11740;51.168;4.112;2023-04-25T00:27:53;9.20;99.90
23143;DHT22;11740;51.168;4.112;2023-04-25T00:30:19;9.10;99.90
23143;DHT22;11740;51.168;4.112;2023-04-25T00:32:46;9.10;99.90
23143;DHT22;11740;51.168;4.112;2023-04-25T00:35:13;9.00;99.90
23143;DHT22;11740;51.168;4.112;2023-04-25T00:37:40;9.00;99.90
23143;DHT22;11740;51.168;4.112;2023-04-25T00:40:07;9.00;99.90
23143;DHT22;11740;51.168;4.112;2023-04-25T00:42:35;9.00;99.90
23143;DHT22;11740;51.168;4.112;2023-04-25T00:45:04;9.00;99.90
23143;DHT22;11740;51.168;4.112;2023-04-25T00:47:32;9.00;99.90
23143;DHT22;11740;51.168;4.112;2023-04-25T00:49:59;9.00;99.90
23143;DHT22;11740;51.168;4.112;2023-04-25T00:52:26;9.00;99.90
23143;DHT22;11740;51.168;4.112;2023-04-25T00:54:53;9.00;99.90
23143;DHT22;11740;51.168;4.112;2023-04-25T00:57:20;8.90;99.90
23143;DHT22;11740;51.168;4.112;2023-04-25T00:59:47;8.90;99.90
23143;DHT22;11740;51.168;4.112;2023-04-25T01:02:14;8.90;99.90
23143;DHT22;11740;51.168;4.112;2023-04-25T01:04:41;8.80;99.90
23143;DHT22;11740;51.168;4.112;2023-04-25T01:07:08;8.90;99.90
23143;DHT22;11740;51.168;4.112;2023-04-25T01:09:36;8.80;99.90
23143;DHT22;11740;51.168;4.112;2023-04-25T01:12:03;8.80;99.90
23143;DHT22;11740;51.168;4.112;2023-04-25T01:14:30;8.80;99.90
23143;DHT22;11740;51.168;4.112;2023-04-25T01:16:57;8.80;99.90
23143;DHT22;11740;51.168;4.112;2023-04-25T01:19:25;8.70;99.90
23143;DHT22;11740;51.168;4.112;2023-04-25T01:21:52;8.70;99.90
23143;DHT22;11740;51.168;4.112;2023-04-25T01:24:19;8.70;99.90
23143;DHT22;11740;51.168;4.112;2023-04-25T01:26:45;8.70;99.90
23143;DHT22;11740;51.168;4.112;2023-04-25T01:29:17;8.70;99.90
23143;DHT22;11740;51.168;4.112;2023-04-25T01:31:44;8.60;99.90
23143;DHT22;11740;51.168;4.112;2023-04-25T01:34:12;8.70;99.90
23143;DHT22;11740;51.168;4.112;2023-04-25T01:36:39;8.60;99.90
23143;DHT22;11740;51.168;4.112;2023-04-25T01:39:07;8.60;99.90
23143;DHT22;11740;51.168;4.112;2023-04-25T01:41:34;8.50;99.90
23143;DHT22;11740;51.168;4.112;2023-04-25T01:44:01;8.50;99.90
23143;DHT22;11740;51.168;4.112;2023-04-25T01:46:28;8.50;99.90
23143;DHT22;11740;51.168;4.112;2023-04-25T01:48:55;8.40;99.90
23143;DHT22;11740;51.168;4.112;2023-04-25T01:51:22;8.40;99.90
23143;DHT22;11740;51.168;4.112;2023-04-25T01:53:49;8.40;99.90
23143;DHT22;11740;51.168;4.112;2023-04-25T01:56:17;8.40;99.90
23143;DHT22;11740;51.168;4.112;2023-04-25T01:58:44;8.40;99.90
23143;DHT22;11740;51.168;4.112;2023-04-25T02:01:11;8.30;99.90
23143;DHT22;11740;51.168;4.112;2023-04-25T02:03:38;8.30;99.90
23143;DHT22;11740;51.168;4.112;2023-04-25T02:06:06;8.20;99.90
23143;DHT22;11740;51.168;4.112;2023-04-25T02:08:33;8.20;99.90
23143;DHT22;11740;51.168;4.112;2023-04-25T02:11:00;8.20;99.90
23143;DHT22;11740;51.168;4.112;2023-04-25T02:13:26;8.20;99.90
23143;DHT22;11740;51.168;4.112;2023-04-25T02:15:53;8.20;1.00
23143;DHT22;11740;51.168;4.112;2023-04-25T02:18:20;8.20;1.00
23143;DHT22;11740;51.168;4.112;2023-04-25T02:20:47;8.10;1.00
23143;DHT22;11740;51.168;4.112;2023-04-25T02:23:14;8.10;1.00
23143;DHT22;11740;51.168;4.112;2023-04-25T02:25:42;8.10;1.00
23143;DHT22;11740;51.168;4.112;2023-04-25T02:28:08;8.10;1.00
23143;DHT22;11740;51.168;4.112;2023-04-25T02:30:35;8.10;1.00
23143;DHT22;11740;51.168;4.112;2023-04-25T02:33:02;8.10;1.00
23143;DHT22;11740;51.168;4.112;2023-04-25T02:35:29;8.10;1.00
23143;DHT22;11740;51.168;4.112;2023-04-25T02:37:56;8.00;1.00
23143;DHT22;11740;51.168;4.112;2023-04-25T02:40:22;8.00;1.00
23143;DHT22;11740;51.168;4.112;2023-04-25T02:42:49;8.00;1.00
23143;DHT22;11740;51.168;4.112;2023-04-25T02:45:16;8.00;1.00
23143;DHT22;11740;51.168;4.112;2023-04-25T02:47:43;8.00;1.00
23143;DHT22;11740;51.168;4.112;2023-04-25T02:50:10;8.00;1.00
23143;DHT22;11740;51.168;4.112;2023-04-25T02:52:37;8.00;1.00
23143;DHT22;11740;51.168;4.112;2023-04-25T02:55:04;8.00;1.00
23143;DHT22;11740;51.168;4.112;2023-04-25T02:57:31;8.00;1.00
23143;DHT22;11740;51.168;4.112;2023-04-25T02:59:58;8.00;1.00
23143;DHT22;11740;51.168;4.112;2023-04-25T03:02:25;8.00;1.00
23143;DHT22;11740;51.168;4.112;2023-04-25T03:04:52;7.90;1.00
23143;DHT22;11740;51.168;4.112;2023-04-25T03:07:19;7.90;1.00
23143;DHT22;11740;51.168;4.112;2023-04-25T03:09:45;7.90;1.00
23143;DHT22;11740;51.168;4.112;2023-04-25T03:12:12;7.80;1.00
23143;DHT22;11740;51.168;4.112;2023-04-25T03:14:39;7.80;1.00
23143;DHT22;11740;51.168;4.112;2023-04-25T03:17:06;7.80;1.00
23143;DHT22;11740;51.168;4.112;2023-04-25T03:19:33;7.80;1.00
23143;DHT22;11740;51.168;4.112;2023-04-25T03:21:59;7.80;1.00
23143;DHT22;11740;51.168;4.112;2023-04-25T03:24:26;7.80;1.00
23143;DHT22;11740;51.168;4.112;2023-04-25T03:26:53;7.70;1.00
23143;DHT22;11740;51.168;4.112;2023-04-25T03:29:20;7.60;1.00
23143;DHT22;11740;51.168;4.112;2023-04-25T03:31:50;7.60;1.00
23143;DHT22;11740;51.168;4.112;2023-04-25T03:34:17;7.60;1.00
23143;DHT22;11740;51.168;4.112;2023-04-25T03:36:44;7.50;1.00
23143;DHT22;11740;51.168;4.112;2023-04-25T03:39:11;7.40;1.00
23143;DHT22;11740;51.168;4.112;2023-04-25T03:41:38;7.40;1.00
23143;DHT22;11740;51.168;4.112;2023-04-25T03:44:04;7.30;1.00
23143;DHT22;11740;51.168;4.112;2023-04-25T03:46:31;7.30;1.00
23143;DHT22;11740;51.168;4.112;2023-04-25T03:48:58;7.40;1.00
23143;DHT22;11740;51.168;4.112;2023-04-25T03:51:25;7.30;1.00
23143;DHT22;11740;51.168;4.112;2023-04-25T03:53:52;7.30;1.00
23143;DHT22;11740;51.168;4.112;2023-04-25T03:56:19;7.30;1.00
23143;DHT22;11740;51.168;4.112;2023-04-25T03:58:47;7.30;1.00
23143;DHT22;11740;51.168;4.112;2023-04-25T04:01:13;7.30;1.00
23143;DHT22;11740;51.168;4.112;2023-04-25T04:03:40;7.30;1.00
23143;DHT22;11740;51.168;4.112;2023-04-25T04:06:07;7.30;99.90
23143;DHT22;11740;51.168;4.112;2023-04-25T04:08:35;7.30;99.90
23143;DHT22;11740;51.168;4.112;2023-04-25T04:11:02;7.30;99.90
23143;DHT22;11740;51.168;4.112;2023-04-25T04:13:29;7.30;99.90
23143;DHT22;11740;51.168;4.112;2023-04-25T04:15:56;7.30;99.90
23143;DHT22;11740;51.168;4.112;2023-04-25T04:18:24;7.20;99.90
23143;DHT22;11740;51.168;4.112;2023-04-25T04:20:50;7.20;99.90
23143;DHT22;11740;51.168;4.112;2023-04-25T04:23:17;7.20;99.90
23143;DHT22;11740;51.168;4.112;2023-04-25T04:25:46;7.20;99.90
23143;DHT22;11740;51.168;4.112;2023-04-25T04:28:14;7.20;99.90
23143;DHT22;11740;51.168;4.112;2023-04-25T04:30:42;7.10;99.90
23143;DHT22;11740;51.168;4.112;2023-04-25T04:33:13;7.10;99.90
23143;DHT22;11740;51.168;4.112;2023-04-25T04:35:41;7.10;99.90
23143;DHT22;11740;51.168;4.112;2023-04-25T04:38:08;7.10;1.00
23143;DHT22;11740;51.168;4.112;2023-04-25T04:40:35;7.00;1.00
23143;DHT22;11740;51.168;4.112;2023-04-25T04:43:01;7.00;1.00
23143;DHT22;11740;51.168;4.112;2023-04-25T04:45:28;7.00;1.00
23143;DHT22;11740;51.168;4.112;2023-04-25T04:47:55;7.00;1.00
23143;DHT22;11740;51.168;4.112;2023-04-25T04:50:22;7.00;99.90
23143;DHT22;11740;51.168;4.112;2023-04-25T04:52:49;7.00;1.00
23143;DHT22;11740;51.168;4.112;2023-04-25T04:55:16;7.00;1.00
23143;DHT22;11740;51.168;4.112;2023-04-25T04:57:43;7.00;1.00
23143;DHT22;11740;51.168;4.112;2023-04-25T05:00:10;6.90;1.00
23143;DHT22;11740;51.168;4.112;2023-04-25T05:02:38;6.90;1.00
23143;DHT22;11740;51.168;4.112;2023-04-25T05:05:06;6.90;1.00
23143;DHT22;11740;51.168;4.112;2023-04-25T05:07:33;6.90;1.00
23143;DHT22;11740;51.168;4.112;2023-04-25T05:10:00;6.80;1.00
23143;DHT22;11740;51.168;4.112;2023-04-25T05:12:27;6.90;1.00
23143;DHT22;11740;51.168;4.112;2023-04-25T05:14:54;6.90;1.00
23143;DHT22;11740;51.168;4.112;2023-04-25T05:17:21;6.90;1.00
23143;DHT22;11740;51.168;4.112;2023-04-25T05:19:48;6.90;1.00
23143;DHT22;11740;51.168;4.112;2023-04-25T05:22:15;6.90;1.00
23143;DHT22;11740;51.168;4.112;2023-04-25T05:24:41;6.90;1.00
23143;DHT22;11740;51.168;4.112;2023-04-25T05:27:08;6.90;1.00
23143;DHT22;11740;51.168;4.112;2023-04-25T05:29:35;6.90;1.00
23143;DHT22;11740;51.168;4.112;2023-04-25T05:32:02;7.00;1.00
23143;DHT22;11740;51.168;4.112;2023-04-25T05:34:29;7.00;1.00
23143;DHT22;11740;51.168;4.112;2023-04-25T05:36:55;6.90;1.00
23143;DHT22;11740;51.168;4.112;2023-04-25T05:39:22;7.00;1.00
23143;DHT22;11740;51.168;4.112;2023-04-25T05:41:49;7.00;1.00
23143;DHT22;11740;51.168;4.112;2023-04-25T05:44:16;7.00;1.00
23143;DHT22;11740;51.168;4.112;2023-04-25T05:46:43;7.00;1.00
23143;DHT22;11740;51.168;4.112;2023-04-25T05:49:10;7.00;1.00
23143;DHT22;11740;51.168;4.112;2023-04-25T05:51:36;7.00;1.00
23143;DHT22;11740;51.168;4.112;2023-04-25T05:54:03;7.00;1.00
23143;DHT22;11740;51.168;4.112;2023-04-25T05:56:30;7.00;1.00
23143;DHT22;11740;51.168;4.112;2023-04-25T05:58:57;7.00;1.00
23143;DHT22;11740;51.168;4.112;2023-04-25T06:01:24;7.00;1.00
23143;DHT22;11740;51.168;4.112;2023-04-25T06:03:51;7.00;1.00
23143;DHT22;11740;51.168;4.112;2023-04-25T06:06:19;7.10;1.00
23143;DHT22;11740;51.168;4.112;2023-04-25T06:08:46;7.10;1.00
23143;DHT22;11740;51.168;4.112;2023-04-25T06:11:13;7.10;1.00
23143;DHT22;11740;51.168;4.112;2023-04-25T06:13:40;7.10;1.00
23143;DHT22;11740;51.168;4.112;2023-04-25T06:16:06;7.10;1.00
23143;DHT22;11740;51.168;4.112;2023-04-25T06:18:34;7.10;1.00
23143;DHT22;11740;51.168;4.112;2023-04-25T06:21:01;7.20;1.00
23143;DHT22;11740;51.168;4.112;2023-04-25T06:23:27;7.20;1.00
23143;DHT22;11740;51.168;4.112;2023-04-25T06:25:56;7.20;1.00
23143;DHT22;11740;51.168;4.112;2023-04-25T06:28:23;7.30;1.00
23143;DHT22;11740;51.168;4.112;2023-04-25T06:30:50;7.40;1.00
23143;DHT22;11740;51.168;4.112;2023-04-25T06:33:17;7.40;1.00
23143;DHT22;11740;51.168;4.112;2023-04-25T06:35:44;7.40;1.00
23143;DHT22;11740;51.168;4.112;2023-04-25T06:38:12;7.40;1.00
23143;DHT22;11740;51.168;4.112;2023-04-25T06:40:39;7.40;1.00
23143;DHT22;11740;51.168;4.112;2023-04-25T06:43:05;7.50;1.00
23143;DHT22;11740;51.168;4.112;2023-04-25T06:45:32;7.40;1.00
23143;DHT22;11740;51.168;4.112;2023-04-25T06:47:59;7.50;1.00
23143;DHT22;11740;51.168;4.112;2023-04-25T06:50:26;7.50;1.00
23143;DHT22;11740;51.168;4.112;2023-04-25T06:52:53;7.50;1.00
23143;DHT22;11740;51.168;4.112;2023-04-25T06:55:20;7.50;1.00
23143;DHT22;11740;51.168;4.112;2023-04-25T06:57:47;7.50;99.90
23143;DHT22;11740;51.168;4.112;2023-04-25T07:00:13;7.60;1.00
23143;DHT22;11740;51.168;4.112;2023-04-25T07:02:41;7.60;1.00
23143;DHT22;11740;51.168;4.112;2023-04-25T07:05:10;7.60;99.90
23143;DHT22;11740;51.168;4.112;2023-04-25T07:07:36;7.60;99.90
23143;DHT22;11740;51.168;4.112;2023-04-25T07:10:03;7.60;99.90
23143;DHT22;11740;51.168;4.112;2023-04-25T07:12:30;7.60;99.90
23143;DHT22;11740;51.168;4.112;2023-04-25T07:14:57;7.60;99.90
23143;DHT22;11740;51.168;4.112;2023-04-25T07:17:24;7.70;99.90
23143;DHT22;11740;51.168;4.112;2023-04-25T07:19:51;7.80;99.90
23143;DHT22;11740;51.168;4.112;2023-04-25T07:22:17;7.90;99.90
23143;DHT22;11740;51.168;4.112;2023-04-25T07:24:44;7.90;99.90
23143;DHT22;11740;51.168;4.112;2023-04-25T07:27:15;7.90;99.90
23143;DHT22;11740;51.168;4.112;2023-04-25T07:29:41;8.00;99.90
23143;DHT22;11740;51.168;4.112;2023-04-25T07:32:08;8.00;99.90
23143;DHT22;11740;51.168;4.112;2023-04-25T07:34:36;8.00;99.90
23143;DHT22;11740;51.168;4.112;2023-04-25T07:37:05;8.00;99.90
23143;DHT22;11740;51.168;4.112;2023-04-25T07:39:31;8.00;99.90
23143;DHT22;11740;51.168;4.112;2023-04-25T07:41:58;8.00;99.90
23143;DHT22;11740;51.168;4.112;2023-04-25T07:44:26;8.10;99.90
23143;DHT22;11740;51.168;4.112;2023-04-25T07:46:53;8.10;99.90
23143;DHT22;11740;51.168;4.112;2023-04-25T07:49:20;8.10;99.90
23143;DHT22;11740;51.168;4.112;2023-04-25T07:51:47;8.10;99.90
23143;DHT22;11740;51.168;4.112;2023-04-25T07:54:14;8.00;99.90
23143;DHT22;11740;51.168;4.112;2023-04-25T07:56:41;8.00;99.90
23143;DHT22;11740;51.168;4.112;2023-04-25T07:59:18;8.00;99.90
23143;DHT22;11740;51.168;4.112;2023-04-25T08:01:45;7.90;99.90
23143;DHT22;11740;51.168;4.112;2023-04-25T08:04:12;7.90;99.90
23143;DHT22;11740;51.168;4.112;2023-04-25T08:06:39;7.90;99.90
23143;DHT22;11740;51.168;4.112;2023-04-25T08:09:07;7.90;99.90
23143;DHT22;11740;51.168;4.112;2023-04-25T08:11:35;7.90;99.90
23143;DHT22;11740;51.168;4.112;2023-04-25T08:14:02;7.90;99.90
23143;DHT22;11740;51.168;4.112;2023-04-25T08:16:29;7.90;99.90
23143;DHT22;11740;51.168;4.112;2023-04-25T08:18:56;7.90;99.90
23143;DHT22;11740;51.168;4.112;2023-04-25T08:21:23;8.00;99.90
23143;DHT22;11740;51.168;4.112;2023-04-25T08:23:50;7.90;99.90
23143;DHT22;11740;51.168;4.112;2023-04-25T08:26:17;7.90;99.90
23143;DHT22;11740;51.168;4.112;2023-04-25T08:28:44;7.90;99.90
23143;DHT22;11740;51.168;4.112;2023-04-25T08:31:10;7.90;99.90
23143;DHT22;11740;51.168;4.112;2023-04-25T08:33:37;7.90;99.90
23143;DHT22;11740;51.168;4.112;2023-04-25T08:36:04;8.00;99.90
23143;DHT22;11740;51.168;4.112;2023-04-25T08:38:32;8.10;99.90
23143;DHT22;11740;51.168;4.112;2023-04-25T08:40:59;8.20;99.90
23143;DHT22;11740;51.168;4.112;2023-04-25T08:43:27;8.20;99.90
23143;DHT22;11740;51.168;4.112;2023-04-25T08:45:57;8.40;99.90
23143;DHT22;11740;51.168;4.112;2023-04-25T08:48:26;8.60;99.90
23143;DHT22;11740;51.168;4.112;2023-04-25T08:50:55;8.60;99.90
23143;DHT22;11740;51.168;4.112;2023-04-25T08:53:25;8.60;99.90
23143;DHT22;11740;51.168;4.112;2023-04-25T08:55:54;8.70;99.90
23143;DHT22;11740;51.168;4.112;2023-04-25T08:58:22;8.90;99.90
23143;DHT22;11740;51.168;4.112;2023-04-25T09:00:50;9.00;99.90
23143;DHT22;11740;51.168;4.112;2023-04-25T09:03:17;9.10;99.90
23143;DHT22;11740;51.168;4.112;2023-04-25T09:05:45;9.30;99.90
23143;DHT22;11740;51.168;4.112;2023-04-25T09:08:12;9.30;99.90
23143;DHT22;11740;51.168;4.112;2023-04-25T09:10:39;9.30;99.90
23143;DHT22;11740;51.168;4.112;2023-04-25T09:15:49;9.30;99.90
23143;DHT22;11740;51.168;4.112;2023-04-25T09:18:31;9.30;99.90
23143;DHT22;11740;51.168;4.112;2023-04-25T09:23:46;9.20;99.90
23143;DHT22;11740;51.168;4.112;2023-04-25T09:26:19;9.30;99.90
23143;DHT22;11740;51.168;4.112;2023-04-25T09:28:47;9.30;99.90
23143;DHT22;11740;51.168;4.112;2023-04-25T09:31:23;9.30;99.90
23143;DHT22;11740;51.168;4.112;2023-04-25T09:33:58;9.40;99.90
23143;DHT22;11740;51.168;4.112;2023-04-25T09:36:27;9.40;99.90
23143;DHT22;11740;51.168;4.112;2023-04-25T09:38:54;9.50;99.90
23143;DHT22;11740;51.168;4.112;2023-04-25T09:41:24;9.40;99.90
23143;DHT22;11740;51.168;4.112;2023-04-25T09:43:51;9.30;99.90
23143;DHT22;11740;51.168;4.112;2023-04-25T09:46:18;9.20;99.90
23143;DHT22;11740;51.168;4.112;2023-04-25T09:48:48;9.10;99.90
23143;DHT22;11740;51.168;4.112;2023-04-25T09:51:16;9.10;99.90
23143;DHT22;11740;51.168;4.112;2023-04-25T09:53:44;9.00;99.90
23143;DHT22;11740;51.168;4.112;2023-04-25T09:56:18;9.00;99.90
23143;DHT22;11740;51.168;4.112;2023-04-25T09:58:46;9.00;99.90
23143;DHT22;11740;51.168;4.112;2023-04-25T10:01:14;9.00;99.90
23143;DHT22;11740;51.168;4.112;2023-04-25T10:03:41;9.00;99.90
23143;DHT22;11740;51.168;4.112;2023-04-25T10:06:14;9.10;99.90
23143;DHT22;11740;51.168;4.112;2023-04-25T10:08:44;9.10;99.90
23143;DHT22;11740;51.168;4.112;2023-04-25T10:11:12;9.20;99.90
23143;DHT22;11740;51.168;4.112;2023-04-25T10:13:42;9.30;99.90
23143;DHT22;11740;51.168;4.112;2023-04-25T10:16:09;9.40;99.90
23143;DHT22;11740;51.168;4.112;2023-04-25T10:18:36;9.40;99.90
23143;DHT22;11740;51.168;4.112;2023-04-25T10:21:04;9.40;99.90
23143;DHT22;11740;51.168;4.112;2023-04-25T10:23:31;9.50;99.90
23143;DHT22;11740;51.168;4.112;2023-04-25T10:25:58;9.60;99.90
23143;DHT22;11740;51.168;4.112;2023-04-25T10:28:26;9.70;99.90
23143;DHT22;11740;51.168;4.112;2023-04-25T10:36:12;9.90;99.90
23143;DHT22;11740;51.168;4.112;2023-04-25T10:38:42;9.90;99.90
23143;DHT22;11740;51.168;4.112;2023-04-25T10:41:09;10.00;99.90
23143;DHT22;11740;51.168;4.112;2023-04-25T10:43:38;10.00;99.90
23143;DHT22;11740;51.168;4.112;2023-04-25T10:48:50;10.20;99.90
23143;DHT22;11740;51.168;4.112;2023-04-25T10:51:21;10.30;99.90
23143;DHT22;11740;51.168;4.112;2023-04-25T10:56:30;10.40;99.90
23143;DHT22;11740;51.168;4.112;2023-04-25T11:01:37;10.60;88.10
23143;DHT22;11740;51.168;4.112;2023-04-25T11:09:46;10.90;78.70
23143;DHT22;11740;51.168;4.112;2023-04-25T11:12:13;10.90;64.30
23143;DHT22;11740;51.168;4.112;2023-04-25T11:14:40;10.90;67.90
23143;DHT22;11740;51.168;4.112;2023-04-25T11:17:07;11.00;72.30
23143;DHT22;11740;51.168;4.112;2023-04-25T11:19:34;11.10;54.10
23143;DHT22;11740;51.168;4.112;2023-04-25T11:22:01;11.30;42.90
23143;DHT22;11740;51.168;4.112;2023-04-25T11:24:29;11.20;38.30
23143;DHT22;11740;51.168;4.112;2023-04-25T11:26:57;11.20;34.30
23143;DHT22;11740;51.168;4.112;2023-04-25T11:29:32;11.20;28.70
23143;DHT22;11740;51.168;4.112;2023-04-25T11:32:00;11.20;29.00
23143;DHT22;11740;51.168;4.112;2023-04-25T11:34:28;11.30;48.90
23143;DHT22;11740;51.168;4.112;2023-04-25T11:37:02;11.30;51.10
23143;DHT22;11740;51.168;4.112;2023-04-25T11:39:29;11.20;40.00
23143;DHT22;11740;51.168;4.112;2023-04-25T11:41:56;11.20;48.20
23143;DHT22;11740;51.168;4.112;2023-04-25T11:44:23;11.20;35.80
23143;DHT22;11740;51.168;4.112;2023-04-25T11:46:50;11.40;36.10
23143;DHT22;11740;51.168;4.112;2023-04-25T11:49:16;11.50;70.60
23143;DHT22;11740;51.168;4.112;2023-04-25T11:51:47;11.60;26.20
23143;DHT22;11740;51.168;4.112;2023-04-25T11:54:14;11.70;34.50
23143;DHT22;11740;51.168;4.112;2023-04-25T11:56:42;11.90;20.40
23143;DHT22;11740;51.168;4.112;2023-04-25T11:59:09;11.90;15.50
23143;DHT22;11740;51.168;4.112;2023-04-25T12:01:38;11.90;21.60
23143;DHT22;11740;51.168;4.112;2023-04-25T12:04:16;12.00;22.70
23143;DHT22;11740;51.168;4.112;2023-04-25T12:06:46;12.20;18.80
23143;DHT22;11740;51.168;4.112;2023-04-25T12:09:15;12.40;19.30
23143;DHT22;11740;51.168;4.112;2023-04-25T12:11:48;12.60;23.10
23143;DHT22;11740;51.168;4.112;2023-04-25T12:14:28;12.50;5.90
23143;DHT22;11740;51.168;4.112;2023-04-25T12:16:57;12.70;15.70
23143;DHT22;11740;51.168;4.112;2023-04-25T12:19:25;12.90;15.00
23143;DHT22;11740;51.168;4.112;2023-04-25T12:21:52;12.90;11.00
23143;DHT22;11740;51.168;4.112;2023-04-25T12:24:25;12.90;15.60
23143;DHT22;11740;51.168;4.112;2023-04-25T12:29:31;12.90;14.00
23143;DHT22;11740;51.168;4.112;2023-04-25T12:32:15;12.70;12.00
23143;DHT22;11740;51.168;4.112;2023-04-25T12:34:42;12.60;9.00
23143;DHT22;11740;51.168;4.112;2023-04-25T12:37:09;12.70;37.70
23143;DHT22;11740;51.168;4.112;2023-04-25T12:39:36;12.90;13.50
23143;DHT22;11740;51.168;4.112;2023-04-25T12:42:03;13.00;17.10
23143;DHT22;11740;51.168;4.112;2023-04-25T12:44:34;13.00;5.40
23143;DHT22;11740;51.168;4.112;2023-04-25T12:47:02;13.00;11.60
23143;DHT22;11740;51.168;4.112;2023-04-25T12:49:29;13.10;4.60
23143;DHT22;11740;51.168;4.112;2023-04-25T12:51:56;12.90;1.00
23143;DHT22;11740;51.168;4.112;2023-04-25T12:54:23;13.00;1.10
23143;DHT22;11740;51.168;4.112;2023-04-25T12:56:51;13.00;4.90
23143;DHT22;11740;51.168;4.112;2023-04-25T12:59:18;13.10;1.00
23143;DHT22;11740;51.168;4.112;2023-04-25T13:01:47;13.30;15.50
23143;DHT22;11740;51.168;4.112;2023-04-25T13:04:14;13.50;6.50
23143;DHT22;11740;51.168;4.112;2023-04-25T13:06:41;13.50;1.00
23143;DHT22;11740;51.168;4.112;2023-04-25T13:09:08;13.60;1.00
23143;DHT22;11740;51.168;4.112;2023-04-25T13:11:35;13.60;1.00
23143;DHT22;11740;51.168;4.112;2023-04-25T13:14:02;13.60;1.00
23143;DHT22;11740;51.168;4.112;2023-04-25T13:16:29;13.70;5.50
23143;DHT22;11740;51.168;4.112;2023-04-25T13:18:56;13.70;1.00
23143;DHT22;11740;51.168;4.112;2023-04-25T13:21:23;13.70;1.00
23143;DHT22;11740;51.168;4.112;2023-04-25T13:23:49;13.70;4.50
23143;DHT22;11740;51.168;4.112;2023-04-25T13:26:17;13.70;1.50
23143;DHT22;11740;51.168;4.112;2023-04-25T13:28:44;13.70;1.00
23143;DHT22;11740;51.168;4.112;2023-04-25T13:31:11;13.70;1.00
23143;DHT22;11740;51.168;4.112;2023-04-25T13:33:38;13.60;1.00
23143;DHT22;11740;51.168;4.112;2023-04-25T13:36:04;13.80;1.00
23143;DHT22;11740;51.168;4.112;2023-04-25T13:38:32;14.00;4.30
23143;DHT22;11740;51.168;4.112;2023-04-25T13:40:59;14.10;1.00
23143;DHT22;11740;51.168;4.112;2023-04-25T13:43:27;14.20;2.00
23143;DHT22;11740;51.168;4.112;2023-04-25T13:45:54;14.20;1.00
23143;DHT22;11740;51.168;4.112;2023-04-25T13:48:21;14.20;1.00
23143;DHT22;11740;51.168;4.112;2023-04-25T13:50:49;14.00;1.00
23143;DHT22;11740;51.168;4.112;2023-04-25T13:53:16;14.00;1.00
23143;DHT22;11740;51.168;4.112;2023-04-25T13:55:42;14.10;1.00
23143;DHT22;11740;51.168;4.112;2023-04-25T13:58:09;14.10;1.00
23143;DHT22;11740;51.168;4.112;2023-04-25T14:00:37;14.20;1.00
23143;DHT22;11740;51.168;4.112;2023-04-25T14:03:06;14.40;1.00
23143;DHT22;11740;51.168;4.112;2023-04-25T14:05:34;14.60;1.00
23143;DHT22;11740;51.168;4.112;2023-04-25T14:08:06;14.80;1.00
23143;DHT22;11740;51.168;4.112;2023-04-25T14:10:34;15.00;1.00
23143;DHT22;11740;51.168;4.112;2023-04-25T14:13:01;15.30;1.00
23143;DHT22;11740;51.168;4.112;2023-04-25T14:15:31;15.60;1.00
23143;DHT22;11740;51.168;4.112;2023-04-25T14:17:58;15.70;1.00
23143;DHT22;11740;51.168;4.112;2023-04-25T14:20:26;15.80;1.00
23143;DHT22;11740;51.168;4.112;2023-04-25T14:22:53;15.70;1.00
23143;DHT22;11740;51.168;4.112;2023-04-25T14:25:23;15.80;1.00
23143;DHT22;11740;51.168;4.112;2023-04-25T14:27:50;16.10;1.00
23143;DHT22;11740;51.168;4.112;2023-04-25T14:30:17;16.10;1.00
23143;DHT22;11740;51.168;4.112;2023-04-25T14:32:44;16.30;1.00
23143;DHT22;11740;51.168;4.112;2023-04-25T14:35:12;16.30;1.00
23143;DHT22;11740;51.168;4.112;2023-04-25T14:37:39;16.30;1.00
23143;DHT22;11740;51.168;4.112;2023-04-25T14:40:06;16.10;1.00
23143;DHT22;11740;51.168;4.112;2023-04-25T14:42:37;16.00;1.00
23143;DHT22;11740;51.168;4.112;2023-04-25T14:45:05;16.10;1.00
23143;DHT22;11740;51.168;4.112;2023-04-25T14:47:36;16.10;1.00
23143;DHT22;11740;51.168;4.112;2023-04-25T14:50:04;16.30;1.00
23143;DHT22;11740;51.168;4.112;2023-04-25T14:52:31;16.50;1.00
23143;DHT22;11740;51.168;4.112;2023-04-25T14:54:58;16.70;1.00
23143;DHT22;11740;51.168;4.112;2023-04-25T14:57:28;16.90;1.00
23143;DHT22;11740;51.168;4.112;2023-04-25T14:59:54;17.10;1.00
23143;DHT22;11740;51.168;4.112;2023-04-25T15:02:21;17.20;1.00
23143;DHT22;11740;51.168;4.112;2023-04-25T15:04:49;17.40;1.00
23143;DHT22;11740;51.168;4.112;2023-04-25T15:07:17;17.10;1.00
23143;DHT22;11740;51.168;4.112;2023-04-25T15:09:45;17.10;1.00
23143;DHT22;11740;51.168;4.112;2023-04-25T15:12:11;17.30;1.00
23143;DHT22;11740;51.168;4.112;2023-04-25T15:14:39;17.60;1.00
23143;DHT22;11740;51.168;4.112;2023-04-25T15:17:06;17.70;1.00
23143;DHT22;11740;51.168;4.112;2023-04-25T15:19:33;17.60;1.00
23143;DHT22;11740;51.168;4.112;2023-04-25T15:22:00;17.70;1.00
23143;DHT22;11740;51.168;4.112;2023-04-25T15:24:27;17.80;1.00
23143;DHT22;11740;51.168;4.112;2023-04-25T15:26:55;17.60;1.00
23143;DHT22;11740;51.168;4.112;2023-04-25T15:29:22;17.50;1.00
23143;DHT22;11740;51.168;4.112;2023-04-25T15:31:49;17.40;1.00
23143;DHT22;11740;51.168;4.112;2023-04-25T15:34:16;17.20;1.00
23143;DHT22;11740;51.168;4.112;2023-04-25T15:36:43;17.20;1.00
23143;DHT22;11740;51.168;4.112;2023-04-25T15:39:10;17.00;1.00
23143;DHT22;11740;51.168;4.112;2023-04-25T15:41:37;16.90;1.00
23143;DHT22;11740;51.168;4.112;2023-04-25T15:44:04;16.90;1.00
23143;DHT22;11740;51.168;4.112;2023-04-25T15:46:31;17.00;1.00
23143;DHT22;11740;51.168;4.112;2023-04-25T15:48:58;17.10;1.00
23143;DHT22;11740;51.168;4.112;2023-04-25T15:51:24;16.90;1.00
23143;DHT22;11740;51.168;4.112;2023-04-25T15:53:52;16.80;1.00
23143;DHT22;11740;51.168;4.112;2023-04-25T15:56:19;16.80;1.00
23143;DHT22;11740;51.168;4.112;2023-04-25T15:58:47;16.70;1.00
23143;DHT22;11740;51.168;4.112;2023-04-25T16:01:14;16.50;1.00
23143;DHT22;11740;51.168;4.112;2023-04-25T16:03:42;16.40;1.00
23143;DHT22;11740;51.168;4.112;2023-04-25T16:06:09;16.20;1.00
23143;DHT22;11740;51.168;4.112;2023-04-25T16:08:36;16.30;1.00
23143;DHT22;11740;51.168;4.112;2023-04-25T16:11:05;16.10;1.00
23143;DHT22;11740;51.168;4.112;2023-04-25T16:13:32;16.10;1.00
23143;DHT22;11740;51.168;4.112;2023-04-25T16:15:59;16.10;1.00